createdAt,value
2018-02-25T07:57:08.535Z,19.60
2018-02-25T07:57:42.538Z,21.80
2018-02-25T07:58:17.511Z,20.55
2018-02-25T07:58:51.184Z,17.87
2018-02-25T07:59:24.453Z,24.05
2018-02-25T07:59:57.673Z,20.90
2018-02-25T08:00:31.208Z,21.77
2018-02-25T08:01:04.435Z,19.23
2018-02-25T08:01:37.661Z,20.75
2018-02-25T08:06:13.229Z,20.00
2018-02-25T08:10:48.001Z,20.93
2018-02-25T08:15:21.277Z,22.27
2018-02-25T08:19:57.070Z,22.80
2018-02-25T08:24:30.362Z,20.17
2018-02-25T08:29:04.782Z,24.03
2018-02-25T08:33:38.958Z,23.20
2018-02-25T08:38:12.514Z,20.47
2018-02-25T08:42:47.583Z,22.30
2018-02-25T08:47:21.032Z,20.47
2018-02-25T08:51:55.491Z,23.40
2018-02-25T08:56:29.601Z,23.03
2018-02-25T09:01:02.871Z,20.17
2018-02-25T09:05:37.506Z,22.03
2018-02-25T09:10:10.821Z,21.83
2018-02-25T09:14:45.276Z,20.20
2018-02-25T09:19:19.068Z,20.57
2018-02-25T09:23:53.109Z,19.23
2018-02-25T09:28:27.158Z,20.97
2018-02-25T09:33:00.379Z,23.70
2018-02-25T09:37:33.804Z,20.20
2018-02-25T09:42:07.094Z,20.83
2018-02-25T09:46:40.319Z,23.27
2018-02-25T09:51:14.391Z,21.70
2018-02-25T09:55:48.421Z,20.33
2018-02-25T10:00:22.452Z,18.97
2018-02-25T10:04:57.117Z,20.30
2018-02-25T10:09:30.818Z,19.27
2018-02-25T10:14:04.233Z,24.03
2018-02-25T10:18:37.560Z,17.80
2018-02-25T10:23:15.881Z,17.63
2018-02-25T10:27:50.031Z,17.27
2018-02-25T10:32:25.146Z,20.93
2018-02-25T10:36:58.527Z,17.60
2018-02-25T10:41:32.978Z,16.57
2018-02-25T10:46:06.984Z,18.40
2018-02-25T10:50:40.234Z,16.53
2018-02-25T10:55:14.285Z,16.57
2018-02-25T10:59:47.860Z,16.87
2018-02-25T11:04:21.114Z,16.17
2018-02-25T11:08:54.423Z,13.97
2018-02-25T11:13:27.778Z,17.10
2018-02-25T11:18:01.809Z,15.27
2018-02-25T11:22:35.101Z,17.83
2018-02-25T11:27:08.325Z,15.40
2018-02-25T11:31:42.438Z,13.03
2018-02-25T11:36:16.403Z,13.97
2018-02-25T11:40:49.696Z,12.13
2018-02-25T11:45:24.673Z,13.17
2018-02-25T11:49:58.115Z,14.63
2018-02-25T11:54:33.061Z,16.70
2018-02-25T11:59:06.661Z,18.50
2018-02-25T12:03:40.687Z,12.37
2018-02-25T12:08:14.328Z,14.27
2018-02-25T12:12:47.552Z,14.90
2018-02-25T12:17:21.887Z,17.37
2018-02-25T12:21:57.005Z,14.17
2018-02-25T12:26:30.450Z,15.10
2018-02-25T12:31:04.143Z,15.57
2018-02-25T12:35:37.404Z,14.57
2018-02-25T12:40:10.674Z,11.90
2018-02-25T12:44:45.692Z,12.97
2018-02-25T12:49:19.931Z,12.90
2018-02-25T12:53:53.233Z,14.97
2018-02-25T12:58:26.521Z,11.20
2018-02-25T13:02:59.755Z,11.77
2018-02-25T13:07:33.003Z,12.03
2018-02-25T13:12:07.015Z,10.77
2018-02-25T13:16:41.097Z,10.27
2018-02-25T13:21:14.373Z,10.80
2018-02-25T13:25:47.767Z,13.27
2018-02-25T13:30:21.739Z,10.80
2018-02-25T13:34:55.144Z,11.77
2018-02-25T13:39:28.572Z,11.93
2018-02-25T13:44:01.824Z,11.17
2018-02-25T13:48:35.824Z,10.27
2018-02-25T13:53:09.435Z,10.10
2018-02-25T13:57:42.731Z,9.70
2018-02-25T14:02:15.984Z,10.57
2018-02-25T14:06:50.308Z,7.83
2018-02-25T14:11:24.690Z,7.67
2018-02-25T14:15:58.704Z,11.17
2018-02-25T14:20:31.985Z,9.03
2018-02-25T14:25:06.035Z,9.43
2018-02-25T14:29:39.295Z,9.63
2018-02-25T14:34:13.336Z,11.20
2018-02-25T14:38:47.363Z,8.93
2018-02-25T14:43:21.348Z,9.20
2018-02-25T14:47:54.599Z,10.07
2018-02-25T14:52:28.603Z,9.10
2018-02-25T14:57:01.861Z,9.30
2018-02-25T15:01:35.119Z,8.47
2018-02-25T15:06:09.539Z,8.57
2018-02-25T15:10:42.892Z,6.70
2018-02-25T15:15:16.299Z,7.30
2018-02-25T15:19:51.074Z,7.60
2018-02-25T15:24:24.429Z,8.00
2018-02-25T15:28:57.652Z,6.40
2018-02-25T15:33:32.627Z,6.90
2018-02-25T15:38:05.899Z,6.47
2018-02-25T15:42:39.107Z,5.73
2018-02-25T15:47:12.375Z,6.40
2018-02-25T15:51:45.677Z,7.10
2018-02-25T15:56:18.971Z,5.50
2018-02-25T16:00:52.231Z,7.37
2018-02-25T16:05:25.475Z,6.87
2018-02-25T16:09:58.877Z,10.40
2018-02-25T16:14:32.906Z,10.70
2018-02-25T16:19:06.408Z,11.13
2018-02-25T16:23:40.503Z,9.60
2018-02-25T16:28:13.767Z,7.17
2018-02-25T16:32:47.712Z,9.00
2018-02-25T16:37:21.407Z,9.43
2018-02-25T16:41:54.738Z,10.03
2018-02-25T16:46:28.065Z,8.90
2018-02-25T16:51:01.769Z,9.37
2018-02-25T16:55:35.056Z,9.33
2018-02-25T17:00:08.361Z,8.87
2018-02-25T17:04:41.608Z,8.03
2018-02-25T17:09:16.201Z,8.93
2018-02-25T17:13:49.504Z,9.77
2018-02-25T17:18:23.543Z,8.67
2018-02-25T17:22:57.662Z,7.43
2018-02-25T17:27:31.000Z,8.87
2018-02-25T17:32:05.660Z,8.03
2018-02-25T17:36:38.952Z,10.17
2018-02-25T17:41:12.367Z,7.63
2018-02-25T17:45:45.661Z,7.57
2018-02-25T17:50:18.941Z,7.00
2018-02-25T17:54:54.313Z,11.70
2018-02-25T17:59:27.624Z,8.50
2018-02-25T18:04:00.896Z,8.17
2018-02-25T18:08:34.522Z,6.97
2018-02-25T18:13:09.677Z,8.70
2018-02-25T18:17:43.034Z,8.17
2018-02-25T18:22:16.416Z,7.53
2018-02-25T18:26:50.763Z,9.33
2018-02-25T18:31:24.052Z,7.77
2018-02-25T18:35:58.076Z,7.63
2018-02-25T18:40:32.912Z,7.53
2018-02-25T18:45:06.912Z,7.03
2018-02-25T18:49:42.118Z,9.73
2018-02-25T18:54:15.384Z,12.07
2018-02-25T18:58:48.871Z,7.53
2018-02-25T19:03:22.277Z,7.43
2018-02-25T19:07:55.656Z,9.63
2018-02-25T19:12:28.886Z,6.57
2018-02-25T19:17:02.512Z,11.90
2018-02-25T19:21:35.993Z,10.60
2018-02-25T19:26:09.564Z,11.60
2018-02-25T19:30:44.241Z,10.40
2018-02-25T19:35:19.744Z,9.37
2018-02-25T19:40:01.311Z,9.33
2018-02-25T19:44:37.204Z,7.63
2018-02-25T19:49:12.392Z,8.33
2018-02-25T19:53:46.144Z,6.67
2018-02-25T19:58:20.377Z,9.70
2018-02-25T20:02:53.786Z,9.97
2018-02-25T20:07:27.867Z,12.40
2018-02-25T20:12:01.107Z,7.83
2018-02-25T20:16:34.350Z,10.40
2018-02-25T20:21:07.625Z,6.97
2018-02-25T20:25:41.639Z,8.20
2018-02-25T20:30:14.952Z,7.23
2018-02-25T20:34:48.231Z,9.77
2018-02-25T20:39:21.605Z,7.63
2018-02-25T20:43:59.826Z,6.10
2018-02-25T20:48:33.172Z,7.40
2018-02-25T20:53:06.447Z,8.53
2018-02-25T20:57:39.838Z,6.77
2018-02-25T21:02:13.874Z,6.20
2018-02-25T21:06:47.919Z,7.93
2018-02-25T21:11:21.309Z,7.30
2018-02-25T21:15:56.065Z,8.13
2018-02-25T21:20:29.448Z,7.83
2018-02-25T21:25:03.108Z,6.57
2018-02-25T21:29:37.132Z,9.17
2018-02-25T21:34:10.992Z,8.93
2018-02-25T21:38:45.049Z,9.57
2018-02-25T21:43:19.079Z,7.73
2018-02-25T21:47:53.104Z,8.77
2018-02-25T21:52:27.141Z,9.13
2018-02-25T21:57:05.993Z,10.13
2018-02-25T22:01:44.971Z,8.80
2018-02-25T22:06:18.255Z,8.83
2018-02-25T22:10:51.533Z,10.10
2018-02-25T22:15:25.105Z,12.17
2018-02-25T22:19:58.679Z,9.33
2018-02-25T22:24:31.982Z,10.40
2018-02-25T22:29:05.244Z,12.20
2018-02-25T22:33:39.264Z,12.90
2018-02-25T22:38:12.567Z,12.03
2018-02-25T22:42:46.460Z,9.37
2018-02-25T22:47:19.704Z,9.03
2018-02-25T22:51:52.969Z,12.53
2018-02-25T22:56:26.276Z,9.17
2018-02-25T23:00:59.566Z,7.07
2018-02-25T23:05:33.588Z,10.03
2018-02-25T23:10:07.603Z,8.87
2018-02-25T23:14:40.847Z,7.27
2018-02-25T23:19:14.438Z,8.37
2018-02-25T23:23:48.492Z,7.43
2018-02-25T23:28:22.373Z,11.57
2018-02-25T23:32:56.204Z,9.67
2018-02-25T23:37:30.290Z,8.60
2018-02-25T23:42:03.507Z,7.83
2018-02-25T23:46:36.753Z,9.30
2018-02-25T23:51:10.728Z,8.50
2018-02-25T23:55:43.992Z,9.03
